sensor_id;sensor_type;location;lat;lon;timestamp;temperature;humidity
16976;DHT22;8604;48.148;-1.786;2022-12-29T00:01:48;10.30;99.90
16976;DHT22;8604;48.148;-1.786;2022-12-29T00:04:17;10.30;99.90
16976;DHT22;8604;48.148;-1.786;2022-12-29T00:06:45;10.30;99.90
16976;DHT22;8604;48.148;-1.786;2022-12-29T00:09:14;10.20;99.90
16976;DHT22;8604;48.148;-1.786;2022-12-29T00:11:43;10.20;99.90
16976;DHT22;8604;48.148;-1.786;2022-12-29T00:14:12;10.20;99.90
16976;DHT22;8604;48.148;-1.786;2022-12-29T00:16:59;10.20;99.90
16976;DHT22;8604;48.148;-1.786;2022-12-29T00:19:27;10.20;99.90
16976;DHT22;8604;48.148;-1.786;2022-12-29T00:22:28;10.20;99.90
16976;DHT22;8604;48.148;-1.786;2022-12-29T00:25:14;10.20;99.90
16976;DHT22;8604;48.148;-1.786;2022-12-29T00:28:00;10.20;99.90
16976;DHT22;8604;48.148;-1.786;2022-12-29T00:30:46;10.20;99.90
16976;DHT22;8604;48.148;-1.786;2022-12-29T00:33:47;10.20;99.90
16976;DHT22;8604;48.148;-1.786;2022-12-29T00:36:37;10.20;99.90
16976;DHT22;8604;48.148;-1.786;2022-12-29T00:39:08;10.20;99.90
16976;DHT22;8604;48.148;-1.786;2022-12-29T00:41:56;10.20;99.90
16976;DHT22;8604;48.148;-1.786;2022-12-29T00:44:43;10.20;99.90
16976;DHT22;8604;48.148;-1.786;2022-12-29T00:47:11;10.20;99.90
16976;DHT22;8604;48.148;-1.786;2022-12-29T00:49:41;10.10;99.90
16976;DHT22;8604;48.148;-1.786;2022-12-29T00:52:11;10.10;99.90
16976;DHT22;8604;48.148;-1.786;2022-12-29T00:54:41;10.10;99.90
16976;DHT22;8604;48.148;-1.786;2022-12-29T00:57:12;10.10;99.90
16976;DHT22;8604;48.148;-1.786;2022-12-29T00:59:41;10.10;99.90
16976;DHT22;8604;48.148;-1.786;2022-12-29T01:02:10;10.10;99.90
16976;DHT22;8604;48.148;-1.786;2022-12-29T01:04:39;10.10;99.90
16976;DHT22;8604;48.148;-1.786;2022-12-29T01:07:09;10.10;99.90
16976;DHT22;8604;48.148;-1.786;2022-12-29T01:09:37;10.10;99.90
16976;DHT22;8604;48.148;-1.786;2022-12-29T01:12:23;10.10;99.90
16976;DHT22;8604;48.148;-1.786;2022-12-29T01:15:06;10.00;99.90
16976;DHT22;8604;48.148;-1.786;2022-12-29T01:17:35;10.10;99.90
16976;DHT22;8604;48.148;-1.786;2022-12-29T01:20:04;10.00;99.90
16976;DHT22;8604;48.148;-1.786;2022-12-29T01:22:34;10.00;99.90
16976;DHT22;8604;48.148;-1.786;2022-12-29T01:25:03;10.00;99.90
16976;DHT22;8604;48.148;-1.786;2022-12-29T01:27:31;10.00;99.90
16976;DHT22;8604;48.148;-1.786;2022-12-29T01:30:00;10.00;99.90
16976;DHT22;8604;48.148;-1.786;2022-12-29T01:32:28;10.00;99.90
16976;DHT22;8604;48.148;-1.786;2022-12-29T01:34:58;9.90;99.90
16976;DHT22;8604;48.148;-1.786;2022-12-29T01:37:26;9.90;99.90
16976;DHT22;8604;48.148;-1.786;2022-12-29T01:39:56;9.90;99.90
16976;DHT22;8604;48.148;-1.786;2022-12-29T01:42:25;9.90;99.90
16976;DHT22;8604;48.148;-1.786;2022-12-29T01:44:55;9.90;99.90
16976;DHT22;8604;48.148;-1.786;2022-12-29T01:47:34;9.90;99.90
16976;DHT22;8604;48.148;-1.786;2022-12-29T01:50:06;9.80;99.90
16976;DHT22;8604;48.148;-1.786;2022-12-29T01:52:38;9.80;99.90
16976;DHT22;8604;48.148;-1.786;2022-12-29T01:55:11;9.80;99.90
16976;DHT22;8604;48.148;-1.786;2022-12-29T01:57:44;9.80;99.90
16976;DHT22;8604;48.148;-1.786;2022-12-29T02:00:15;9.80;99.90
16976;DHT22;8604;48.148;-1.786;2022-12-29T02:02:49;9.80;99.90
16976;DHT22;8604;48.148;-1.786;2022-12-29T02:05:24;9.70;99.90
16976;DHT22;8604;48.148;-1.786;2022-12-29T02:07:54;9.70;99.90
16976;DHT22;8604;48.148;-1.786;2022-12-29T02:10:26;9.70;99.90
16976;DHT22;8604;48.148;-1.786;2022-12-29T02:12:56;9.70;99.90
16976;DHT22;8604;48.148;-1.786;2022-12-29T02:15:34;9.70;99.90
16976;DHT22;8604;48.148;-1.786;2022-12-29T02:18:14;9.70;99.90
16976;DHT22;8604;48.148;-1.786;2022-12-29T02:21:14;9.60;99.90
16976;DHT22;8604;48.148;-1.786;2022-12-29T02:24:08;9.60;99.90
16976;DHT22;8604;48.148;-1.786;2022-12-29T02:27:00;9.60;99.90
16976;DHT22;8604;48.148;-1.786;2022-12-29T02:32:45;9.60;99.90
16976;DHT22;8604;48.148;-1.786;2022-12-29T02:35:25;9.60;99.90
16976;DHT22;8604;48.148;-1.786;2022-12-29T02:38:02;9.60;99.90
16976;DHT22;8604;48.148;-1.786;2022-12-29T02:40:37;9.60;99.90
16976;DHT22;8604;48.148;-1.786;2022-12-29T02:43:14;9.50;99.90
16976;DHT22;8604;48.148;-1.786;2022-12-29T02:45:53;9.60;99.90
16976;DHT22;8604;48.148;-1.786;2022-12-29T02:48:27;9.60;99.90
16976;DHT22;8604;48.148;-1.786;2022-12-29T02:51:00;9.60;99.90
16976;DHT22;8604;48.148;-1.786;2022-12-29T02:53:32;9.60;99.90
16976;DHT22;8604;48.148;-1.786;2022-12-29T02:56:19;9.60;99.90
16976;DHT22;8604;48.148;-1.786;2022-12-29T02:58:47;9.60;99.90
16976;DHT22;8604;48.148;-1.786;2022-12-29T03:01:23;9.60;99.90
16976;DHT22;8604;48.148;-1.786;2022-12-29T03:04:14;9.50;99.90
16976;DHT22;8604;48.148;-1.786;2022-12-29T03:06:53;9.50;99.90
16976;DHT22;8604;48.148;-1.786;2022-12-29T03:09:31;9.50;99.90
16976;DHT22;8604;48.148;-1.786;2022-12-29T03:12:12;9.50;99.90
16976;DHT22;8604;48.148;-1.786;2022-12-29T03:14:52;9.50;99.90
16976;DHT22;8604;48.148;-1.786;2022-12-29T03:17:48;9.50;99.90
16976;DHT22;8604;48.148;-1.786;2022-12-29T03:20:24;9.50;99.90
16976;DHT22;8604;48.148;-1.786;2022-12-29T03:22:59;9.50;99.90
16976;DHT22;8604;48.148;-1.786;2022-12-29T03:25:35;9.50;99.90
16976;DHT22;8604;48.148;-1.786;2022-12-29T03:28:10;9.50;99.90
16976;DHT22;8604;48.148;-1.786;2022-12-29T03:30:43;9.50;99.90
16976;DHT22;8604;48.148;-1.786;2022-12-29T03:33:18;9.50;99.90
16976;DHT22;8604;48.148;-1.786;2022-12-29T03:35:55;9.50;99.90
16976;DHT22;8604;48.148;-1.786;2022-12-29T03:38:33;9.50;99.90
16976;DHT22;8604;48.148;-1.786;2022-12-29T03:41:05;9.50;99.90
16976;DHT22;8604;48.148;-1.786;2022-12-29T03:43:35;9.50;99.90
16976;DHT22;8604;48.148;-1.786;2022-12-29T03:46:03;9.50;99.90
16976;DHT22;8604;48.148;-1.786;2022-12-29T03:48:32;9.40;99.90
16976;DHT22;8604;48.148;-1.786;2022-12-29T03:51:02;9.40;99.90
16976;DHT22;8604;48.148;-1.786;2022-12-29T03:53:31;9.40;99.90
16976;DHT22;8604;48.148;-1.786;2022-12-29T03:56:00;9.40;99.90
16976;DHT22;8604;48.148;-1.786;2022-12-29T03:58:28;9.40;99.90
16976;DHT22;8604;48.148;-1.786;2022-12-29T04:01:06;9.40;99.90
16976;DHT22;8604;48.148;-1.786;2022-12-29T04:03:59;9.40;99.90
16976;DHT22;8604;48.148;-1.786;2022-12-29T04:06:29;9.40;99.90
16976;DHT22;8604;48.148;-1.786;2022-12-29T04:09:01;9.30;99.90
16976;DHT22;8604;48.148;-1.786;2022-12-29T04:11:33;9.30;99.90
16976;DHT22;8604;48.148;-1.786;2022-12-29T04:14:03;9.30;99.90
16976;DHT22;8604;48.148;-1.786;2022-12-29T04:16:33;9.30;99.90
16976;DHT22;8604;48.148;-1.786;2022-12-29T04:19:04;9.30;99.90
16976;DHT22;8604;48.148;-1.786;2022-12-29T04:21:36;9.20;99.90
16976;DHT22;8604;48.148;-1.786;2022-12-29T04:24:05;9.30;99.90
16976;DHT22;8604;48.148;-1.786;2022-12-29T04:26:38;9.20;99.90
16976;DHT22;8604;48.148;-1.786;2022-12-29T04:29:27;9.20;99.90
16976;DHT22;8604;48.148;-1.786;2022-12-29T04:32:17;9.30;99.90
16976;DHT22;8604;48.148;-1.786;2022-12-29T04:34:48;9.20;99.90
16976;DHT22;8604;48.148;-1.786;2022-12-29T04:37:19;9.20;99.90
16976;DHT22;8604;48.148;-1.786;2022-12-29T04:39:47;9.20;99.90
16976;DHT22;8604;48.148;-1.786;2022-12-29T04:42:16;9.20;99.90
16976;DHT22;8604;48.148;-1.786;2022-12-29T04:44:45;9.20;99.90
16976;DHT22;8604;48.148;-1.786;2022-12-29T04:47:21;9.20;99.90
16976;DHT22;8604;48.148;-1.786;2022-12-29T04:49:57;9.10;99.90
16976;DHT22;8604;48.148;-1.786;2022-12-29T04:52:41;9.10;99.90
16976;DHT22;8604;48.148;-1.786;2022-12-29T04:55:12;9.10;99.90
16976;DHT22;8604;48.148;-1.786;2022-12-29T04:57:40;9.10;99.90
16976;DHT22;8604;48.148;-1.786;2022-12-29T05:00:13;9.10;99.90
16976;DHT22;8604;48.148;-1.786;2022-12-29T05:02:42;9.10;99.90
16976;DHT22;8604;48.148;-1.786;2022-12-29T05:05:11;9.00;99.90
16976;DHT22;8604;48.148;-1.786;2022-12-29T05:07:44;9.00;99.90
16976;DHT22;8604;48.148;-1.786;2022-12-29T05:10:12;9.00;99.90
16976;DHT22;8604;48.148;-1.786;2022-12-29T05:12:41;9.00;99.90
16976;DHT22;8604;48.148;-1.786;2022-12-29T05:15:11;9.00;99.90
16976;DHT22;8604;48.148;-1.786;2022-12-29T05:17:42;9.00;99.90
16976;DHT22;8604;48.148;-1.786;2022-12-29T05:20:11;8.90;99.90
16976;DHT22;8604;48.148;-1.786;2022-12-29T05:22:41;8.90;99.90
16976;DHT22;8604;48.148;-1.786;2022-12-29T05:25:11;8.90;99.90
16976;DHT22;8604;48.148;-1.786;2022-12-29T05:28:00;8.90;99.90
16976;DHT22;8604;48.148;-1.786;2022-12-29T05:30:48;8.90;99.90
16976;DHT22;8604;48.148;-1.786;2022-12-29T05:33:18;8.80;99.90
16976;DHT22;8604;48.148;-1.786;2022-12-29T05:35:48;8.80;99.90
16976;DHT22;8604;48.148;-1.786;2022-12-29T05:38:17;8.80;99.90
16976;DHT22;8604;48.148;-1.786;2022-12-29T05:40:47;8.80;99.90
16976;DHT22;8604;48.148;-1.786;2022-12-29T05:43:36;8.70;99.90
16976;DHT22;8604;48.148;-1.786;2022-12-29T05:46:17;8.80;99.90
16976;DHT22;8604;48.148;-1.786;2022-12-29T05:49:09;8.70;99.90
16976;DHT22;8604;48.148;-1.786;2022-12-29T05:51:52;8.70;99.90
16976;DHT22;8604;48.148;-1.786;2022-12-29T05:54:21;8.70;99.90
16976;DHT22;8604;48.148;-1.786;2022-12-29T05:56:52;8.70;99.90
16976;DHT22;8604;48.148;-1.786;2022-12-29T05:59:20;8.60;99.90
16976;DHT22;8604;48.148;-1.786;2022-12-29T06:01:49;8.60;99.90
16976;DHT22;8604;48.148;-1.786;2022-12-29T06:04:18;8.60;99.90
16976;DHT22;8604;48.148;-1.786;2022-12-29T06:06:47;8.60;99.90
16976;DHT22;8604;48.148;-1.786;2022-12-29T06:09:25;8.50;99.90
16976;DHT22;8604;48.148;-1.786;2022-12-29T06:11:55;8.50;99.90
16976;DHT22;8604;48.148;-1.786;2022-12-29T06:14:24;8.50;99.90
16976;DHT22;8604;48.148;-1.786;2022-12-29T06:16:53;8.40;99.90
16976;DHT22;8604;48.148;-1.786;2022-12-29T06:19:21;8.40;99.90
16976;DHT22;8604;48.148;-1.786;2022-12-29T06:21:50;8.30;99.90
16976;DHT22;8604;48.148;-1.786;2022-12-29T06:24:19;8.30;99.90
16976;DHT22;8604;48.148;-1.786;2022-12-29T06:26:48;8.30;99.90
16976;DHT22;8604;48.148;-1.786;2022-12-29T06:29:18;8.30;99.90
16976;DHT22;8604;48.148;-1.786;2022-12-29T06:31:47;8.20;99.90
16976;DHT22;8604;48.148;-1.786;2022-12-29T06:34:16;8.20;99.90
16976;DHT22;8604;48.148;-1.786;2022-12-29T06:36:45;8.20;99.90
16976;DHT22;8604;48.148;-1.786;2022-12-29T06:39:14;8.10;99.90
16976;DHT22;8604;48.148;-1.786;2022-12-29T06:41:51;8.10;99.90
16976;DHT22;8604;48.148;-1.786;2022-12-29T06:44:44;8.10;99.90
16976;DHT22;8604;48.148;-1.786;2022-12-29T06:47:13;8.10;99.90
16976;DHT22;8604;48.148;-1.786;2022-12-29T06:49:41;8.00;99.90
16976;DHT22;8604;48.148;-1.786;2022-12-29T06:52:10;8.10;99.90
16976;DHT22;8604;48.148;-1.786;2022-12-29T06:54:40;8.10;99.90
16976;DHT22;8604;48.148;-1.786;2022-12-29T06:57:08;8.00;99.90
16976;DHT22;8604;48.148;-1.786;2022-12-29T06:59:36;8.00;99.90
16976;DHT22;8604;48.148;-1.786;2022-12-29T07:02:08;8.00;99.90
16976;DHT22;8604;48.148;-1.786;2022-12-29T07:04:37;8.00;99.90
16976;DHT22;8604;48.148;-1.786;2022-12-29T07:07:06;8.00;99.90
16976;DHT22;8604;48.148;-1.786;2022-12-29T07:09:34;8.00;99.90
16976;DHT22;8604;48.148;-1.786;2022-12-29T07:12:02;8.00;99.90
16976;DHT22;8604;48.148;-1.786;2022-12-29T07:14:30;8.00;99.90
16976;DHT22;8604;48.148;-1.786;2022-12-29T07:17:09;8.00;99.90
16976;DHT22;8604;48.148;-1.786;2022-12-29T07:19:38;8.00;99.90
16976;DHT22;8604;48.148;-1.786;2022-12-29T07:22:06;8.00;99.90
16976;DHT22;8604;48.148;-1.786;2022-12-29T07:24:34;8.00;99.90
16976;DHT22;8604;48.148;-1.786;2022-12-29T07:27:03;8.00;99.90
16976;DHT22;8604;48.148;-1.786;2022-12-29T07:29:31;7.90;99.90
16976;DHT22;8604;48.148;-1.786;2022-12-29T07:32:00;8.00;99.90
16976;DHT22;8604;48.148;-1.786;2022-12-29T07:34:30;7.90;99.90
16976;DHT22;8604;48.148;-1.786;2022-12-29T07:36:58;7.90;99.90
16976;DHT22;8604;48.148;-1.786;2022-12-29T07:39:26;7.90;99.90
16976;DHT22;8604;48.148;-1.786;2022-12-29T07:41:59;7.90;99.90
16976;DHT22;8604;48.148;-1.786;2022-12-29T07:44:38;7.80;99.90
16976;DHT22;8604;48.148;-1.786;2022-12-29T07:47:25;7.80;99.90
16976;DHT22;8604;48.148;-1.786;2022-12-29T07:49:55;7.80;99.90
16976;DHT22;8604;48.148;-1.786;2022-12-29T07:52:23;7.80;99.90
16976;DHT22;8604;48.148;-1.786;2022-12-29T07:54:52;7.80;99.90
16976;DHT22;8604;48.148;-1.786;2022-12-29T07:57:20;7.80;99.90
16976;DHT22;8604;48.148;-1.786;2022-12-29T07:59:55;7.80;99.90
16976;DHT22;8604;48.148;-1.786;2022-12-29T08:02:23;7.80;99.90
16976;DHT22;8604;48.148;-1.786;2022-12-29T08:04:55;7.80;99.90
16976;DHT22;8604;48.148;-1.786;2022-12-29T08:07:23;7.80;99.90
16976;DHT22;8604;48.148;-1.786;2022-12-29T08:09:52;7.80;99.90
16976;DHT22;8604;48.148;-1.786;2022-12-29T08:12:20;7.80;99.90
16976;DHT22;8604;48.148;-1.786;2022-12-29T08:14:49;7.90;99.90
16976;DHT22;8604;48.148;-1.786;2022-12-29T08:17:17;7.80;99.90
16976;DHT22;8604;48.148;-1.786;2022-12-29T08:19:45;7.80;99.90
16976;DHT22;8604;48.148;-1.786;2022-12-29T08:22:16;7.80;99.90
16976;DHT22;8604;48.148;-1.786;2022-12-29T08:24:44;7.80;99.90
16976;DHT22;8604;48.148;-1.786;2022-12-29T08:27:12;7.80;99.90
16976;DHT22;8604;48.148;-1.786;2022-12-29T08:29:47;7.80;99.90
16976;DHT22;8604;48.148;-1.786;2022-12-29T08:32:16;7.80;99.90
16976;DHT22;8604;48.148;-1.786;2022-12-29T08:34:45;7.90;99.90
16976;DHT22;8604;48.148;-1.786;2022-12-29T08:37:15;7.90;99.90
16976;DHT22;8604;48.148;-1.786;2022-12-29T08:39:43;7.90;99.90
16976;DHT22;8604;48.148;-1.786;2022-12-29T08:42:11;7.90;99.90
16976;DHT22;8604;48.148;-1.786;2022-12-29T08:44:40;7.90;99.90
16976;DHT22;8604;48.148;-1.786;2022-12-29T08:47:09;7.90;99.90
16976;DHT22;8604;48.148;-1.786;2022-12-29T08:49:38;7.90;99.90
16976;DHT22;8604;48.148;-1.786;2022-12-29T08:52:07;7.90;99.90
16976;DHT22;8604;48.148;-1.786;2022-12-29T08:54:37;7.90;99.90
16976;DHT22;8604;48.148;-1.786;2022-12-29T08:57:05;7.90;99.90
16976;DHT22;8604;48.148;-1.786;2022-12-29T08:59:39;7.90;99.90
16976;DHT22;8604;48.148;-1.786;2022-12-29T09:02:10;8.00;99.90
16976;DHT22;8604;48.148;-1.786;2022-12-29T09:04:44;8.00;99.90
16976;DHT22;8604;48.148;-1.786;2022-12-29T09:07:13;8.00;99.90
16976;DHT22;8604;48.148;-1.786;2022-12-29T09:09:43;8.00;99.90
16976;DHT22;8604;48.148;-1.786;2022-12-29T09:12:11;8.10;99.90
16976;DHT22;8604;48.148;-1.786;2022-12-29T09:14:39;8.10;99.90
16976;DHT22;8604;48.148;-1.786;2022-12-29T09:17:09;8.10;99.90
16976;DHT22;8604;48.148;-1.786;2022-12-29T09:19:55;8.20;99.90
16976;DHT22;8604;48.148;-1.786;2022-12-29T09:22:24;8.20;99.90
16976;DHT22;8604;48.148;-1.786;2022-12-29T09:24:53;8.20;99.90
16976;DHT22;8604;48.148;-1.786;2022-12-29T09:27:22;8.20;99.90
16976;DHT22;8604;48.148;-1.786;2022-12-29T09:29:50;8.30;99.90
16976;DHT22;8604;48.148;-1.786;2022-12-29T09:32:18;8.30;99.90
16976;DHT22;8604;48.148;-1.786;2022-12-29T09:34:49;8.40;99.90
16976;DHT22;8604;48.148;-1.786;2022-12-29T09:37:32;8.40;99.90
16976;DHT22;8604;48.148;-1.786;2022-12-29T09:40:03;8.50;99.90
16976;DHT22;8604;48.148;-1.786;2022-12-29T09:42:35;8.50;99.90
16976;DHT22;8604;48.148;-1.786;2022-12-29T09:45:13;8.50;99.90
16976;DHT22;8604;48.148;-1.786;2022-12-29T09:47:42;8.60;99.90
16976;DHT22;8604;48.148;-1.786;2022-12-29T09:50:19;8.60;99.90
16976;DHT22;8604;48.148;-1.786;2022-12-29T09:52:50;8.70;99.90
16976;DHT22;8604;48.148;-1.786;2022-12-29T09:55:23;8.70;99.90
16976;DHT22;8604;48.148;-1.786;2022-12-29T09:57:57;8.70;99.90
16976;DHT22;8604;48.148;-1.786;2022-12-29T10:00:36;8.80;99.90
16976;DHT22;8604;48.148;-1.786;2022-12-29T10:03:10;8.90;99.90
16976;DHT22;8604;48.148;-1.786;2022-12-29T10:05:47;8.90;99.90
16976;DHT22;8604;48.148;-1.786;2022-12-29T10:08:32;8.90;99.90
16976;DHT22;8604;48.148;-1.786;2022-12-29T10:11:13;9.00;99.90
16976;DHT22;8604;48.148;-1.786;2022-12-29T10:13:57;9.00;99.90
16976;DHT22;8604;48.148;-1.786;2022-12-29T10:16:35;9.10;99.90
16976;DHT22;8604;48.148;-1.786;2022-12-29T10:19:21;9.10;99.90
16976;DHT22;8604;48.148;-1.786;2022-12-29T10:22:08;9.20;99.90
16976;DHT22;8604;48.148;-1.786;2022-12-29T10:24:39;9.20;99.90
16976;DHT22;8604;48.148;-1.786;2022-12-29T10:27:12;9.20;99.90
16976;DHT22;8604;48.148;-1.786;2022-12-29T10:29:48;9.20;99.90
16976;DHT22;8604;48.148;-1.786;2022-12-29T10:32:25;9.20;99.90
16976;DHT22;8604;48.148;-1.786;2022-12-29T10:34:56;9.30;99.90
16976;DHT22;8604;48.148;-1.786;2022-12-29T10:37:32;9.30;99.90
16976;DHT22;8604;48.148;-1.786;2022-12-29T10:40:11;9.40;99.90
16976;DHT22;8604;48.148;-1.786;2022-12-29T10:42:47;9.40;99.90
16976;DHT22;8604;48.148;-1.786;2022-12-29T10:45:19;9.40;99.90
16976;DHT22;8604;48.148;-1.786;2022-12-29T10:47:53;9.40;99.90
16976;DHT22;8604;48.148;-1.786;2022-12-29T10:50:25;9.40;99.90
16976;DHT22;8604;48.148;-1.786;2022-12-29T10:52:54;9.50;99.90
16976;DHT22;8604;48.148;-1.786;2022-12-29T10:55:27;9.50;99.90
16976;DHT22;8604;48.148;-1.786;2022-12-29T10:57:59;9.50;99.90
16976;DHT22;8604;48.148;-1.786;2022-12-29T11:00:29;9.50;99.90
16976;DHT22;8604;48.148;-1.786;2022-12-29T11:03:17;9.60;99.90
16976;DHT22;8604;48.148;-1.786;2022-12-29T11:05:55;9.60;99.90
16976;DHT22;8604;48.148;-1.786;2022-12-29T11:08:25;9.70;99.90
16976;DHT22;8604;48.148;-1.786;2022-12-29T11:11:00;9.70;99.90
16976;DHT22;8604;48.148;-1.786;2022-12-29T11:13:32;9.70;99.90
16976;DHT22;8604;48.148;-1.786;2022-12-29T11:16:05;9.70;99.90
16976;DHT22;8604;48.148;-1.786;2022-12-29T11:18:36;9.80;99.90
16976;DHT22;8604;48.148;-1.786;2022-12-29T11:21:07;9.80;99.90
16976;DHT22;8604;48.148;-1.786;2022-12-29T11:23:55;9.90;99.90
16976;DHT22;8604;48.148;-1.786;2022-12-29T11:26:25;9.90;99.90
16976;DHT22;8604;48.148;-1.786;2022-12-29T11:29:16;10.00;99.90
16976;DHT22;8604;48.148;-1.786;2022-12-29T11:31:46;10.00;99.90
16976;DHT22;8604;48.148;-1.786;2022-12-29T11:34:20;10.00;99.90
16976;DHT22;8604;48.148;-1.786;2022-12-29T11:36:51;10.10;99.90
16976;DHT22;8604;48.148;-1.786;2022-12-29T11:39:37;10.10;99.90
16976;DHT22;8604;48.148;-1.786;2022-12-29T11:42:13;10.10;99.90
16976;DHT22;8604;48.148;-1.786;2022-12-29T11:44:46;10.10;99.90
16976;DHT22;8604;48.148;-1.786;2022-12-29T11:47:23;10.10;99.90
16976;DHT22;8604;48.148;-1.786;2022-12-29T11:49:55;10.20;99.90
16976;DHT22;8604;48.148;-1.786;2022-12-29T11:52:25;10.20;99.90
16976;DHT22;8604;48.148;-1.786;2022-12-29T11:54:55;10.20;99.90
16976;DHT22;8604;48.148;-1.786;2022-12-29T11:57:25;10.20;99.90
16976;DHT22;8604;48.148;-1.786;2022-12-29T11:59:55;10.20;99.90
16976;DHT22;8604;48.148;-1.786;2022-12-29T12:02:48;10.20;99.90
16976;DHT22;8604;48.148;-1.786;2022-12-29T12:05:23;10.30;99.90
16976;DHT22;8604;48.148;-1.786;2022-12-29T12:07:57;10.30;99.90
16976;DHT22;8604;48.148;-1.786;2022-12-29T12:10:31;10.30;99.90
16976;DHT22;8604;48.148;-1.786;2022-12-29T12:13:06;10.30;99.90
16976;DHT22;8604;48.148;-1.786;2022-12-29T12:15:40;10.40;99.90
16976;DHT22;8604;48.148;-1.786;2022-12-29T12:18:18;10.50;99.90
16976;DHT22;8604;48.148;-1.786;2022-12-29T12:20:50;10.60;99.90
16976;DHT22;8604;48.148;-1.786;2022-12-29T12:23:32;10.60;99.90
16976;DHT22;8604;48.148;-1.786;2022-12-29T12:26:10;10.60;99.90
16976;DHT22;8604;48.148;-1.786;2022-12-29T12:28:46;10.70;99.90
16976;DHT22;8604;48.148;-1.786;2022-12-29T12:31:32;10.70;99.90
16976;DHT22;8604;48.148;-1.786;2022-12-29T12:34:13;10.80;99.90
16976;DHT22;8604;48.148;-1.786;2022-12-29T12:37:06;10.90;99.90
16976;DHT22;8604;48.148;-1.786;2022-12-29T12:39:47;10.90;99.90
16976;DHT22;8604;48.148;-1.786;2022-12-29T12:42:36;10.90;99.90
16976;DHT22;8604;48.148;-1.786;2022-12-29T12:45:40;11.00;99.90
16976;DHT22;8604;48.148;-1.786;2022-12-29T12:48:31;11.00;99.90
16976;DHT22;8604;48.148;-1.786;2022-12-29T12:51:08;11.00;99.90
16976;DHT22;8604;48.148;-1.786;2022-12-29T12:54:06;11.00;99.90
16976;DHT22;8604;48.148;-1.786;2022-12-29T12:56:52;11.10;99.90
16976;DHT22;8604;48.148;-1.786;2022-12-29T12:59:33;11.10;99.90
16976;DHT22;8604;48.148;-1.786;2022-12-29T13:02:15;11.10;99.90
16976;DHT22;8604;48.148;-1.786;2022-12-29T13:05:07;11.10;99.90
16976;DHT22;8604;48.148;-1.786;2022-12-29T13:07:48;11.10;99.90
16976;DHT22;8604;48.148;-1.786;2022-12-29T13:10:36;11.00;99.90
16976;DHT22;8604;48.148;-1.786;2022-12-29T13:13:34;11.00;99.90
16976;DHT22;8604;48.148;-1.786;2022-12-29T13:16:12;10.90;99.90
16976;DHT22;8604;48.148;-1.786;2022-12-29T13:18:50;10.90;99.90
16976;DHT22;8604;48.148;-1.786;2022-12-29T13:21:44;10.80;99.90
16976;DHT22;8604;48.148;-1.786;2022-12-29T13:24:33;10.90;99.90
16976;DHT22;8604;48.148;-1.786;2022-12-29T13:27:06;10.80;99.90
16976;DHT22;8604;48.148;-1.786;2022-12-29T13:29:45;10.80;99.90
16976;DHT22;8604;48.148;-1.786;2022-12-29T13:32:27;10.80;99.90
16976;DHT22;8604;48.148;-1.786;2022-12-29T13:35:19;10.80;99.90
16976;DHT22;8604;48.148;-1.786;2022-12-29T13:37:54;10.80;99.90
16976;DHT22;8604;48.148;-1.786;2022-12-29T13:40:26;10.80;99.90
16976;DHT22;8604;48.148;-1.786;2022-12-29T13:42:57;10.80;99.90
16976;DHT22;8604;48.148;-1.786;2022-12-29T13:45:29;10.70;99.90
16976;DHT22;8604;48.148;-1.786;2022-12-29T13:48:02;10.70;99.90
16976;DHT22;8604;48.148;-1.786;2022-12-29T13:50:35;10.70;99.90
16976;DHT22;8604;48.148;-1.786;2022-12-29T13:53:13;10.70;99.90
16976;DHT22;8604;48.148;-1.786;2022-12-29T13:55:50;10.70;99.90
16976;DHT22;8604;48.148;-1.786;2022-12-29T13:58:26;10.60;99.90
16976;DHT22;8604;48.148;-1.786;2022-12-29T14:00:59;10.60;99.90
16976;DHT22;8604;48.148;-1.786;2022-12-29T14:03:46;10.60;99.90
16976;DHT22;8604;48.148;-1.786;2022-12-29T14:06:22;10.60;99.90
16976;DHT22;8604;48.148;-1.786;2022-12-29T14:08:55;10.50;99.90
16976;DHT22;8604;48.148;-1.786;2022-12-29T14:11:31;10.50;99.90
16976;DHT22;8604;48.148;-1.786;2022-12-29T14:14:11;10.50;99.90
16976;DHT22;8604;48.148;-1.786;2022-12-29T14:16:40;10.60;99.90
16976;DHT22;8604;48.148;-1.786;2022-12-29T14:19:14;10.60;99.90
16976;DHT22;8604;48.148;-1.786;2022-12-29T14:21:51;10.60;99.90
16976;DHT22;8604;48.148;-1.786;2022-12-29T14:24:40;10.70;99.90
16976;DHT22;8604;48.148;-1.786;2022-12-29T14:30:47;10.70;99.90
16976;DHT22;8604;48.148;-1.786;2022-12-29T14:33:17;10.70;99.90
16976;DHT22;8604;48.148;-1.786;2022-12-29T14:35:47;10.70;99.90
16976;DHT22;8604;48.148;-1.786;2022-12-29T14:38:25;10.60;99.90
16976;DHT22;8604;48.148;-1.786;2022-12-29T14:41:34;10.60;99.90
16976;DHT22;8604;48.148;-1.786;2022-12-29T14:44:16;10.50;99.90
16976;DHT22;8604;48.148;-1.786;2022-12-29T14:46:49;10.50;99.90
16976;DHT22;8604;48.148;-1.786;2022-12-29T14:49:24;10.50;99.90
16976;DHT22;8604;48.148;-1.786;2022-12-29T14:51:54;10.50;99.90
16976;DHT22;8604;48.148;-1.786;2022-12-29T14:54:45;10.50;99.90
16976;DHT22;8604;48.148;-1.786;2022-12-29T14:57:38;10.50;99.90
16976;DHT22;8604;48.148;-1.786;2022-12-29T15:00:16;10.50;99.90
16976;DHT22;8604;48.148;-1.786;2022-12-29T15:02:48;10.50;99.90
16976;DHT22;8604;48.148;-1.786;2022-12-29T15:05:27;10.50;99.90
16976;DHT22;8604;48.148;-1.786;2022-12-29T15:07:57;10.50;99.90
16976;DHT22;8604;48.148;-1.786;2022-12-29T15:10:33;10.50;99.90
16976;DHT22;8604;48.148;-1.786;2022-12-29T15:13:12;10.50;99.90
16976;DHT22;8604;48.148;-1.786;2022-12-29T15:15:42;10.50;99.90
16976;DHT22;8604;48.148;-1.786;2022-12-29T15:18:21;10.50;99.90
16976;DHT22;8604;48.148;-1.786;2022-12-29T15:20:57;10.50;99.90
16976;DHT22;8604;48.148;-1.786;2022-12-29T15:23:27;10.40;99.90
16976;DHT22;8604;48.148;-1.786;2022-12-29T15:25:58;10.40;99.90
16976;DHT22;8604;48.148;-1.786;2022-12-29T15:28:37;10.40;99.90
16976;DHT22;8604;48.148;-1.786;2022-12-29T15:31:10;10.40;99.90
16976;DHT22;8604;48.148;-1.786;2022-12-29T15:33:41;10.40;99.90
16976;DHT22;8604;48.148;-1.786;2022-12-29T15:36:11;10.40;99.90
16976;DHT22;8604;48.148;-1.786;2022-12-29T15:38:40;10.40;99.90
16976;DHT22;8604;48.148;-1.786;2022-12-29T15:41:23;10.30;99.90
16976;DHT22;8604;48.148;-1.786;2022-12-29T15:44:00;10.30;99.90
16976;DHT22;8604;48.148;-1.786;2022-12-29T15:46:31;10.10;99.90
16976;DHT22;8604;48.148;-1.786;2022-12-29T15:48:59;10.10;99.90
16976;DHT22;8604;48.148;-1.786;2022-12-29T15:51:36;10.00;99.90
16976;DHT22;8604;48.148;-1.786;2022-12-29T15:54:05;10.00;99.90
16976;DHT22;8604;48.148;-1.786;2022-12-29T15:56:34;9.90;99.90
16976;DHT22;8604;48.148;-1.786;2022-12-29T15:59:03;9.90;99.90
16976;DHT22;8604;48.148;-1.786;2022-12-29T16:01:33;9.80;99.90
16976;DHT22;8604;48.148;-1.786;2022-12-29T16:04:04;9.80;99.90
16976;DHT22;8604;48.148;-1.786;2022-12-29T16:06:35;9.70;99.90
16976;DHT22;8604;48.148;-1.786;2022-12-29T16:09:05;9.70;99.90
16976;DHT22;8604;48.148;-1.786;2022-12-29T16:11:35;9.70;99.90
16976;DHT22;8604;48.148;-1.786;2022-12-29T16:14:10;9.60;99.90
16976;DHT22;8604;48.148;-1.786;2022-12-29T16:16:42;9.60;99.90
16976;DHT22;8604;48.148;-1.786;2022-12-29T16:19:13;9.60;99.90
16976;DHT22;8604;48.148;-1.786;2022-12-29T16:21:43;9.50;99.90
16976;DHT22;8604;48.148;-1.786;2022-12-29T16:24:14;9.50;99.90
16976;DHT22;8604;48.148;-1.786;2022-12-29T16:26:48;9.40;99.90
16976;DHT22;8604;48.148;-1.786;2022-12-29T16:29:19;9.30;99.90
16976;DHT22;8604;48.148;-1.786;2022-12-29T16:35:50;9.20;99.90
16976;DHT22;8604;48.148;-1.786;2022-12-29T16:38:21;9.10;99.90